createdAt,value
2023-03-18T00:03:27.052Z,2.42
2023-03-18T00:07:29.819Z,2.85
2023-03-18T00:11:32.836Z,2.80
2023-03-18T00:15:36.087Z,2.85
2023-03-18T00:19:40.197Z,2.50
2023-03-18T00:23:43.153Z,2.90
2023-03-18T00:27:46.310Z,3.72
2023-03-18T00:31:49.621Z,4.13
2023-03-18T00:35:54.780Z,3.40
2023-03-18T00:39:58.909Z,3.38
2023-03-18T00:44:01.772Z,3.15
2023-03-18T00:48:05.221Z,3.73
2023-03-18T00:52:09.934Z,3.53
2023-03-18T00:56:13.210Z,4.00
2023-03-18T01:00:17.485Z,4.00
2023-03-18T01:04:21.460Z,4.25
2023-03-18T01:08:27.030Z,4.18
2023-03-18T01:12:29.774Z,3.70
2023-03-18T01:16:32.717Z,4.00
2023-03-18T01:20:36.560Z,4.18
2023-03-18T01:24:41.150Z,3.83
2023-03-18T01:28:44.684Z,4.25
2023-03-18T01:32:47.903Z,4.28
2023-03-18T01:36:51.295Z,4.05
2023-03-18T01:40:58.793Z,4.30
2023-03-18T01:45:19.332Z,4.13
2023-03-18T01:49:26.521Z,4.97
2023-03-18T01:53:36.080Z,5.00
2023-03-18T01:57:40.422Z,5.70
2023-03-18T02:01:53.897Z,5.05
2023-03-18T02:05:59.942Z,4.82
2023-03-18T02:14:15.759Z,4.20
2023-03-18T02:18:21.828Z,4.20
2023-03-18T02:22:29.632Z,3.92
2023-03-18T02:26:51.727Z,4.13
2023-03-18T02:31:05.898Z,4.22
2023-03-18T02:35:12.491Z,3.97
2023-03-18T02:39:17.462Z,4.20
2023-03-18T02:43:23.739Z,4.25
2023-03-18T02:47:43.714Z,4.22
2023-03-18T02:51:46.713Z,3.85
2023-03-18T02:55:49.500Z,3.67
2023-03-18T02:59:52.304Z,4.30
2023-03-18T03:03:57.374Z,3.80
2023-03-18T03:08:00.137Z,3.50
2023-03-18T03:12:04.612Z,3.75
2023-03-18T03:16:09.331Z,3.40
2023-03-18T03:20:15.369Z,3.35
2023-03-18T03:24:18.229Z,3.30
2023-03-18T03:28:22.944Z,3.55
2023-03-18T03:32:27.695Z,3.38
2023-03-18T03:36:31.973Z,3.50
2023-03-18T03:40:35.219Z,3.40
2023-03-18T03:44:38.008Z,3.40
2023-03-18T03:48:40.994Z,3.58
2023-03-18T03:52:49.443Z,3.30
2023-03-18T03:56:53.102Z,3.15
2023-03-18T04:00:56.445Z,3.47
2023-03-18T04:05:00.097Z,2.83
2023-03-18T04:09:07.877Z,3.28
2023-03-18T04:13:11.514Z,3.13
2023-03-18T04:17:16.837Z,3.30
2023-03-18T04:21:19.764Z,3.45
2023-03-18T04:25:29.434Z,2.97
2023-03-18T04:29:33.632Z,3.30
2023-03-18T04:33:37.763Z,3.45
2023-03-18T04:37:40.791Z,3.60
2023-03-18T04:41:45.124Z,3.22
2023-03-18T04:45:48.001Z,3.72
2023-03-18T04:49:51.638Z,3.30
2023-03-18T04:53:54.829Z,3.50
2023-03-18T04:57:59.522Z,4.05
2023-03-18T05:02:05.053Z,3.20
2023-03-18T05:06:11.042Z,3.53
2023-03-18T05:10:29.769Z,3.38
2023-03-18T05:14:34.194Z,3.75
2023-03-18T05:18:37.572Z,3.92
2023-03-18T05:22:42.412Z,3.90
2023-03-18T05:26:54.659Z,3.85
2023-03-18T05:31:03.598Z,4.13
2023-03-18T05:35:10.468Z,3.92
2023-03-18T05:39:22.263Z,3.88
2023-03-18T05:43:26.238Z,3.55
2023-03-18T05:47:34.243Z,3.65
2023-03-18T05:51:47.561Z,3.55
2023-03-18T05:56:01.167Z,3.60
2023-03-18T06:00:05.730Z,3.83
2023-03-18T06:04:23.300Z,3.67
2023-03-18T06:08:28.925Z,3.55
2023-03-18T06:12:31.851Z,3.47
2023-03-18T06:16:35.754Z,3.67
2023-03-18T06:20:40.150Z,4.13
2023-03-18T06:24:43.150Z,3.83
2023-03-18T06:28:46.941Z,3.78
2023-03-18T06:32:51.681Z,4.60
2023-03-18T06:36:56.733Z,3.90
2023-03-18T06:41:00.149Z,4.20
2023-03-18T06:45:04.116Z,3.78
2023-03-18T06:49:19.510Z,3.90
2023-03-18T06:53:31.126Z,3.50
2023-03-18T06:57:35.477Z,3.67
2023-03-18T07:01:39.517Z,3.50
2023-03-18T07:05:43.445Z,3.80
2023-03-18T07:09:48.468Z,3.67
2023-03-18T07:13:51.220Z,3.38
2023-03-18T07:18:02.867Z,3.50
2023-03-18T07:22:06.947Z,3.60
2023-03-18T07:26:12.346Z,3.15
2023-03-18T07:30:16.119Z,3.10
2023-03-18T07:34:21.148Z,3.20
2023-03-18T07:38:24.287Z,3.10
2023-03-18T07:42:28.397Z,3.03
2023-03-18T07:46:33.104Z,2.90
2023-03-18T07:50:36.419Z,3.22
2023-03-18T07:54:39.175Z,3.00
2023-03-18T07:58:43.266Z,3.05
2023-03-18T08:02:45.995Z,3.33
2023-03-18T08:06:49.283Z,3.33
2023-03-18T08:10:52.328Z,3.90
2023-03-18T08:14:56.394Z,3.35
2023-03-18T08:18:59.471Z,3.60
2023-03-18T08:23:03.473Z,3.40
2023-03-18T08:27:07.107Z,3.42
2023-03-18T08:31:11.344Z,3.50
2023-03-18T08:35:14.242Z,3.30
2023-03-18T08:39:17.148Z,2.70
2023-03-18T08:43:22.411Z,2.70
2023-03-18T08:47:27.326Z,3.30
2023-03-18T08:51:30.143Z,2.70
2023-03-18T08:55:35.435Z,2.72
2023-03-18T08:59:38.455Z,2.33
2023-03-18T09:03:42.549Z,2.50
2023-03-18T09:07:46.434Z,3.05
2023-03-18T09:11:49.752Z,2.85
2023-03-18T09:15:52.846Z,3.60
2023-03-18T09:19:57.259Z,4.07
2023-03-18T09:24:00.110Z,4.00
2023-03-18T09:28:10.677Z,4.60
2023-03-18T09:32:17.053Z,4.95
2023-03-18T09:36:21.370Z,5.18
2023-03-18T09:40:27.756Z,4.78
2023-03-18T09:44:33.497Z,4.32
2023-03-18T09:48:56.735Z,4.32
2023-03-18T09:53:12.786Z,4.28
2023-03-18T09:57:22.800Z,4.32
2023-03-18T10:01:28.135Z,4.13
2023-03-18T10:05:34.602Z,4.00
2023-03-18T10:09:43.072Z,3.70
2023-03-18T10:13:49.631Z,4.00
2023-03-18T10:17:57.380Z,4.15
2023-03-18T10:22:17.054Z,4.13
2023-03-18T10:26:27.626Z,4.15
2023-03-18T10:30:42.957Z,3.38
2023-03-18T10:34:58.177Z,3.45
2023-03-18T10:39:02.799Z,3.25
2023-03-18T10:43:15.388Z,3.03
2023-03-18T10:47:23.369Z,3.55
2023-03-18T10:51:33.324Z,3.08
2023-03-18T10:55:43.979Z,2.33
2023-03-18T10:59:48.864Z,1.90
2023-03-18T11:03:54.461Z,2.03
2023-03-18T11:07:59.764Z,2.40
2023-03-18T11:12:06.823Z,1.83
2023-03-18T11:16:23.219Z,2.08
2023-03-18T11:20:42.826Z,2.40
2023-03-18T11:24:46.101Z,2.40
2023-03-18T11:28:48.786Z,2.67
2023-03-18T11:32:56.092Z,2.17
2023-03-18T11:37:01.479Z,2.20
2023-03-18T11:41:08.574Z,2.45
2023-03-18T11:45:39.178Z,2.58
2023-03-18T11:49:43.821Z,1.90
2023-03-18T11:53:57.270Z,2.40
2023-03-18T11:58:35.511Z,2.70
2023-03-18T12:02:54.899Z,2.22
2023-03-18T12:07:15.565Z,2.25
2023-03-18T12:11:28.522Z,2.17
2023-03-18T12:15:42.589Z,2.10
2023-03-18T12:20:02.786Z,2.50
2023-03-18T12:24:31.051Z,2.00
2023-03-18T12:28:45.148Z,2.00
2023-03-18T12:32:56.214Z,2.22
2023-03-18T12:37:13.964Z,2.17
2023-03-18T12:41:27.925Z,2.40
2023-03-18T12:45:36.518Z,2.20
2023-03-18T12:49:42.236Z,2.25
2023-03-18T12:53:47.429Z,2.17
2023-03-18T12:57:57.107Z,2.10
2023-03-18T13:02:20.349Z,2.22
2023-03-18T13:06:28.622Z,2.10
2023-03-18T13:10:35.702Z,2.30
2023-03-18T13:14:51.336Z,2.40
2023-03-18T13:18:56.723Z,1.90
2023-03-18T13:23:25.738Z,2.00
2023-03-18T13:27:58.109Z,2.03
2023-03-18T13:32:19.927Z,2.00
2023-03-18T13:36:52.079Z,2.15
2023-03-18T13:41:32.366Z,2.00
2023-03-18T13:45:40.781Z,2.30
2023-03-18T13:49:46.021Z,2.03
2023-03-18T13:53:50.568Z,1.70
2023-03-18T13:57:58.535Z,2.28
2023-03-18T14:02:31.041Z,2.00
2023-03-18T14:06:52.114Z,1.73
2023-03-18T14:11:27.766Z,1.67
2023-03-18T14:15:38.789Z,1.73
2023-03-18T14:19:42.261Z,1.85
2023-03-18T14:23:46.352Z,1.52
2023-03-18T14:27:51.659Z,1.60
2023-03-18T14:31:59.026Z,1.70
2023-03-18T14:36:06.867Z,1.25
2023-03-18T14:40:18.485Z,1.40
2023-03-18T14:44:27.877Z,1.10
2023-03-18T14:48:32.847Z,1.60
2023-03-18T14:52:39.386Z,1.70
2023-03-18T14:56:52.253Z,1.58
2023-03-18T15:00:58.400Z,1.55
2023-03-18T15:05:02.814Z,1.67
2023-03-18T15:09:09.648Z,1.70
2023-03-18T15:13:16.409Z,1.63
2023-03-18T15:17:19.196Z,1.50
2023-03-18T15:21:25.125Z,1.98
2023-03-18T15:25:28.029Z,1.70
2023-03-18T15:29:35.192Z,1.83
2023-03-18T15:33:39.799Z,1.58
2023-03-18T15:37:44.486Z,1.35
2023-03-18T15:41:50.831Z,1.40
2023-03-18T15:45:58.614Z,1.20
2023-03-18T15:50:04.417Z,1.40
2023-03-18T15:54:15.785Z,1.25
2023-03-18T15:58:25.628Z,1.30
2023-03-18T16:02:30.846Z,1.05
2023-03-18T16:06:34.405Z,2.85
2023-03-18T16:10:37.456Z,1.20
2023-03-18T16:14:42.821Z,1.45
2023-03-18T16:18:46.941Z,1.38
2023-03-18T16:22:49.728Z,2.10
2023-03-18T16:26:54.038Z,2.13
2023-03-18T16:30:57.617Z,1.60
2023-03-18T16:35:01.656Z,2.00
2023-03-18T16:39:15.819Z,2.28
2023-03-18T16:43:21.737Z,3.33
2023-03-18T16:47:27.614Z,2.70
2023-03-18T16:51:31.965Z,2.00
2023-03-18T16:55:35.240Z,3.22
2023-03-18T16:59:38.999Z,2.28
2023-03-18T17:03:41.742Z,2.08
2023-03-18T17:07:45.863Z,4.68
2023-03-18T17:11:50.199Z,2.58
2023-03-18T17:15:53.023Z,1.23
2023-03-18T17:19:56.823Z,0.70
2023-03-18T17:24:07.820Z,0.88
2023-03-18T17:28:19.927Z,0.82
2023-03-18T17:32:23.045Z,0.77
2023-03-18T17:36:25.836Z,1.25
2023-03-18T17:40:31.686Z,2.50
2023-03-18T17:44:34.539Z,1.98
2023-03-18T17:48:38.724Z,2.80
2023-03-18T17:52:41.677Z,1.90
2023-03-18T17:56:46.081Z,1.58
2023-03-18T18:00:51.970Z,1.30
2023-03-18T18:04:55.754Z,1.60
2023-03-18T18:09:00.481Z,1.42
2023-03-18T18:13:07.216Z,1.77
2023-03-18T18:17:14.308Z,1.75
2023-03-18T18:21:19.942Z,2.25
2023-03-18T18:25:26.129Z,1.95
2023-03-18T18:29:30.312Z,1.85
2023-03-18T18:33:33.976Z,2.58
2023-03-18T18:37:36.930Z,2.65
2023-03-18T18:41:40.326Z,2.53
2023-03-18T18:45:44.897Z,3.42
2023-03-18T18:49:47.794Z,3.25
2023-03-18T18:53:52.291Z,2.70
2023-03-18T18:57:55.095Z,3.50
2023-03-18T19:02:00.571Z,3.20
2023-03-18T19:06:05.359Z,3.30
2023-03-18T19:10:11.998Z,3.25
2023-03-18T19:14:24.357Z,3.35
2023-03-18T19:18:33.647Z,3.58
2023-03-18T19:22:36.500Z,3.80
2023-03-18T19:26:39.274Z,4.10
2023-03-18T19:30:42.587Z,4.00
2023-03-18T19:34:47.004Z,5.13
2023-03-18T19:38:50.219Z,4.80
2023-03-18T19:42:52.977Z,5.15
2023-03-18T19:46:58.469Z,6.93
2023-03-18T19:51:03.376Z,6.90
2023-03-18T19:55:08.549Z,8.93
2023-03-18T19:59:19.484Z,7.85
2023-03-18T20:03:25.111Z,9.23
2023-03-18T20:07:33.340Z,9.90
2023-03-18T20:11:37.413Z,10.25
2023-03-18T20:15:40.208Z,10.45
2023-03-18T20:19:42.931Z,12.27
2023-03-18T20:23:47.198Z,11.48
2023-03-18T20:27:50.726Z,12.35
2023-03-18T20:31:53.544Z,10.90
2023-03-18T20:35:56.946Z,10.70
2023-03-18T20:40:01.587Z,11.23
2023-03-18T20:44:05.357Z,10.20
2023-03-18T20:48:08.797Z,10.38
2023-03-18T20:52:25.850Z,12.50
2023-03-18T20:56:32.843Z,10.05
2023-03-18T21:00:35.590Z,12.15
2023-03-18T21:04:38.649Z,9.15
2023-03-18T21:08:42.070Z,8.93
2023-03-18T21:12:46.880Z,9.02
2023-03-18T21:16:51.709Z,9.75
2023-03-18T21:20:55.392Z,10.18
2023-03-18T21:24:58.658Z,10.43
2023-03-18T21:29:02.716Z,11.20
2023-03-18T21:33:18.304Z,10.48
2023-03-18T21:37:23.132Z,10.85
2023-03-18T21:41:29.835Z,11.85
2023-03-18T21:45:34.719Z,12.63
2023-03-18T21:49:37.621Z,12.07
2023-03-18T21:53:41.771Z,11.07
2023-03-18T21:57:48.239Z,19.23
2023-03-18T22:01:54.906Z,16.85
2023-03-18T22:05:57.877Z,11.80
2023-03-18T22:10:01.801Z,12.02
2023-03-18T22:14:04.498Z,10.98
2023-03-18T22:18:08.829Z,9.57
2023-03-18T22:22:15.544Z,10.23
2023-03-18T22:26:27.929Z,9.52
2023-03-18T22:30:32.630Z,9.98
2023-03-18T22:34:36.764Z,9.50
2023-03-18T22:38:39.533Z,8.60
2023-03-18T22:42:42.418Z,9.27
2023-03-18T22:46:45.179Z,5.97
2023-03-18T22:50:49.405Z,3.75
2023-03-18T22:54:55.442Z,3.03
2023-03-18T22:58:58.174Z,2.80
2023-03-18T23:03:00.979Z,3.60
2023-03-18T23:07:05.989Z,2.50
2023-03-18T23:11:08.835Z,2.40
2023-03-18T23:15:16.156Z,2.63
2023-03-18T23:19:18.880Z,2.72
2023-03-18T23:23:23.303Z,3.00
2023-03-18T23:27:27.384Z,2.85
2023-03-18T23:31:30.329Z,2.95
2023-03-18T23:35:33.776Z,2.92
2023-03-18T23:39:42.898Z,2.90
2023-03-18T23:43:47.190Z,3.70
2023-03-18T23:47:49.965Z,6.22
2023-03-18T23:51:52.684Z,6.78
2023-03-18T23:55:56.838Z,8.90
2023-03-18T23:59:59.549Z,9.18
